Time;durP1;ratioP1;P1;durP2;ratioP2;P2;SDS_P1;SDS_P2;PMS_P1;PMS_P2;Temp;Humidity;BMP_temperature;BMP_pressure;BME280_temperature;BME280_humidity;BME280_pressure;Samples;Min_cycle;Max_cycle;Signal;HPM_P1;HPM_P2
2023/06/07 00:01:42;;;;;;;9.80;6.43;;;;;;;;;;5047829;28;20491;-44
2023/06/07 00:04:08;;;;;;;8.47;6.80;;;;;;;;;;5039025;28;20442;-44
2023/06/07 00:06:34;;;;;;;7.27;6.50;;;;;;;;;;5049844;28;20426;-44
2023/06/07 00:09:00;;;;;;;10.37;7.27;;;;;;;;;;5051011;28;20479;-44
2023/06/07 00:11:26;;;;;;;7.80;6.73;;;;;;;;;;5042757;28;20570;-45
2023/06/07 00:13:52;;;;;;;8.60;6.83;;;;;;;;;;5042312;28;20447;-45
2023/06/07 00:16:18;;;;;;;8.40;6.90;;;;;;;;;;5042438;28;20522;-44
2023/06/07 00:18:44;;;;;;;7.53;6.53;;;;;;;;;;5050325;28;20418;-44
2023/06/07 00:21:10;;;;;;;13.30;7.23;;;;;;;;;;5050784;28;20411;-44
2023/06/07 00:23:36;;;;;;;10.73;6.70;;;;;;;;;;5050559;28;20532;-44
2023/06/07 00:26:02;;;;;;;10.57;6.33;;;;;;;;;;5054352;28;20452;-44
2023/06/07 00:28:28;;;;;;;6.73;6.10;;;;;;;;;;5046304;28;20410;-44
2023/06/07 00:30:54;;;;;;;7.40;6.33;;;;;;;;;;5054410;28;20407;-45
2023/06/07 00:33:21;;;;;;;11.43;7.00;;;;;;;;;;5045609;28;20791;-44
2023/06/07 00:35:47;;;;;;;8.17;7.03;;;;;;;;;;5046048;28;20423;-44
2023/06/07 00:38:13;;;;;;;9.60;6.40;;;;;;;;;;5054243;28;20487;-44
2023/06/07 00:40:39;;;;;;;12.67;6.73;;;;;;;;;;5051211;28;20408;-44
2023/06/07 00:43:05;;;;;;;8.83;5.83;;;;;;;;;;5047937;28;20441;-44
2023/06/07 00:45:31;;;;;;;7.90;6.80;;;;;;;;;;5045916;28;20393;-45
2023/06/07 00:47:57;;;;;;;9.00;6.00;;;;;;;;;;5054249;28;20816;-44
2023/06/07 00:50:23;;;;;;;7.47;6.33;;;;;;;;;;5045736;28;20448;-45
2023/06/07 00:52:49;;;;;;;12.90;6.17;;;;;;;;;;5053572;28;20446;-45
2023/06/07 00:55:16;;;;;;;8.67;6.37;;;;;;;;;;5046108;28;20518;-44
2023/06/07 00:57:42;;;;;;;8.07;6.23;;;;;;;;;;5050434;28;20829;-44
2023/06/07 01:00:13;;;;;;;10.30;6.83;;;;;;;;;;5049045;28;20416;-44
2023/06/07 01:02:39;;;;;;;9.63;6.97;;;;;;;;;;5052596;28;21016;-44
2023/06/07 01:05:06;;;;;;;8.10;6.20;;;;;;;;;;5053319;28;20499;-44
2023/06/07 01:07:32;;;;;;;10.00;6.33;;;;;;;;;;5044808;28;20402;-44
2023/06/07 01:09:59;;;;;;;9.17;7.00;;;;;;;;;;5053248;28;20876;-44
2023/06/07 01:12:26;;;;;;;7.23;6.47;;;;;;;;;;5045252;28;20438;-44
2023/06/07 01:14:53;;;;;;;11.87;6.90;;;;;;;;;;5047010;28;20439;-44
2023/06/07 01:17:24;;;;;;;6.97;6.30;;;;;;;;;;5041939;28;20610;-44
2023/06/07 01:19:53;;;;;;;7.13;5.80;;;;;;;;;;5053533;28;20386;-44
2023/06/07 01:22:19;;;;;;;11.30;6.00;;;;;;;;;;5053237;28;20883;-44
2023/06/07 01:24:47;;;;;;;7.00;6.30;;;;;;;;;;5045419;28;20410;-45
2023/06/07 01:27:14;;;;;;;7.70;6.07;;;;;;;;;;5053365;28;20410;-44
2023/06/07 01:29:40;;;;;;;7.07;5.57;;;;;;;;;;5045059;28;20392;-44
2023/06/07 01:32:07;;;;;;;8.87;6.00;;;;;;;;;;5053211;28;20805;-45
2023/06/07 01:34:34;;;;;;;7.90;5.90;;;;;;;;;;5044424;28;20451;-44
2023/06/07 01:37:00;;;;;;;11.37;6.47;;;;;;;;;;5058484;28;20552;-44
2023/06/07 01:39:27;;;;;;;10.63;6.43;;;;;;;;;;5053018;28;20414;-44
2023/06/07 01:41:53;;;;;;;9.30;6.50;;;;;;;;;;5048401;28;20389;-44
2023/06/07 01:44:19;;;;;;;9.30;6.33;;;;;;;;;;5043534;28;20427;-44
2023/06/07 01:46:46;;;;;;;10.00;7.50;;;;;;;;;;5052247;28;20433;-44
2023/06/07 01:49:12;;;;;;;7.07;6.37;;;;;;;;;;5052903;28;20414;-44
2023/06/07 01:51:38;;;;;;;10.13;6.60;;;;;;;;;;5044591;28;20502;-44
2023/06/07 01:54:05;;;;;;;13.50;6.00;;;;;;;;;;5052434;28;20511;-44
2023/06/07 01:56:43;;;;;;;6.80;5.60;;;;;;;;;;5052469;28;20565;-45
2023/06/07 01:59:12;;;;;;;6.70;5.87;;;;;;;;;;5052899;28;20414;-44
2023/06/07 02:01:46;;;;;;;6.77;5.97;;;;;;;;;;5044329;28;20425;-44
2023/06/07 02:04:14;;;;;;;9.83;5.97;;;;;;;;;;5052793;28;20405;-45
2023/06/07 02:06:44;;;;;;;13.03;5.90;;;;;;;;;;5049408;28;20396;-45
2023/06/07 02:09:11;;;;;;;6.53;5.30;;;;;;;;;;5047891;28;20424;-45
2023/06/07 02:11:38;;;;;;;8.83;5.57;;;;;;;;;;5052497;28;20421;-45
2023/06/07 02:14:04;;;;;;;13.30;6.17;;;;;;;;;;5051165;28;20424;-44
2023/06/07 02:16:37;;;;;;;6.73;6.10;;;;;;;;;;5044043;28;20796;-44
2023/06/07 02:19:06;;;;;;;7.40;5.80;;;;;;;;;;5052776;28;20421;-44
2023/06/07 02:21:33;;;;;;;13.37;6.33;;;;;;;;;;5043844;28;20956;-44
2023/06/07 02:23:59;;;;;;;6.50;5.67;;;;;;;;;;5051992;28;20413;-44
2023/06/07 02:26:25;;;;;;;6.50;5.90;;;;;;;;;;5052135;28;20384;-44
2023/06/07 02:28:51;;;;;;;10.50;6.07;;;;;;;;;;5047601;28;20908;-44
2023/06/07 02:31:20;;;;;;;7.67;6.57;;;;;;;;;;5048566;28;20450;-44
2023/06/07 02:33:46;;;;;;;6.13;5.50;;;;;;;;;;5051750;28;20520;-44
2023/06/07 02:36:12;;;;;;;9.70;6.07;;;;;;;;;;5043521;28;20757;-44
2023/06/07 02:38:38;;;;;;;8.37;5.57;;;;;;;;;;5051950;28;20414;-45
2023/06/07 02:41:05;;;;;;;9.73;5.97;;;;;;;;;;5051868;28;20510;-45
2023/06/07 02:43:30;;;;;;;17.53;6.33;;;;;;;;;;5050929;28;20450;-44
2023/06/07 02:45:56;;;;;;;10.70;6.10;;;;;;;;;;5051943;28;20960;-45
2023/06/07 02:48:22;;;;;;;6.90;5.77;;;;;;;;;;5050772;28;20410;-44
2023/06/07 02:50:48;;;;;;;10.53;6.77;;;;;;;;;;5044221;28;21352;-44
2023/06/07 02:53:15;;;;;;;16.13;6.27;;;;;;;;;;5043238;28;20807;-45
2023/06/07 02:55:41;;;;;;;8.07;5.63;;;;;;;;;;5043414;28;20409;-44
2023/06/07 02:58:07;;;;;;;14.23;6.10;;;;;;;;;;5051565;28;20464;-44
2023/06/07 03:00:33;;;;;;;6.67;5.80;;;;;;;;;;5043423;28;20458;-45
2023/06/07 03:02:59;;;;;;;7.70;6.10;;;;;;;;;;5051304;28;20483;-44
2023/06/07 03:05:26;;;;;;;10.83;6.20;;;;;;;;;;5050552;28;20472;-44
2023/06/07 03:07:52;;;;;;;6.20;5.47;;;;;;;;;;5044558;28;20492;-44
2023/06/07 03:10:18;;;;;;;7.20;5.90;;;;;;;;;;5051747;28;20895;-44
2023/06/07 03:12:44;;;;;;;7.97;6.13;;;;;;;;;;5050749;28;20436;-45
2023/06/07 03:15:10;;;;;;;13.03;6.27;;;;;;;;;;5050638;28;20490;-44
2023/06/07 03:17:36;;;;;;;7.30;5.73;;;;;;;;;;5042942;28;20512;-44
2023/06/07 03:20:06;;;;;;;10.23;5.47;;;;;;;;;;5051434;28;20445;-44
2023/06/07 03:22:31;;;;;;;12.70;6.23;;;;;;;;;;5049430;28;20411;-44
2023/06/07 03:24:58;;;;;;;8.87;6.90;;;;;;;;;;5039626;28;20442;-45
2023/06/07 03:27:24;;;;;;;11.20;6.10;;;;;;;;;;5049147;28;20409;-44
2023/06/07 03:29:51;;;;;;;7.93;6.33;;;;;;;;;;5051347;28;20383;-44
2023/06/07 03:32:16;;;;;;;7.93;5.87;;;;;;;;;;5051264;28;20861;-44
2023/06/07 03:34:43;;;;;;;11.50;5.97;;;;;;;;;;5042985;28;20493;-44
2023/06/07 03:37:09;;;;;;;14.20;6.57;;;;;;;;;;5051308;28;20443;-44
2023/06/07 03:39:36;;;;;;;8.07;6.30;;;;;;;;;;5048681;28;20414;-44
2023/06/07 03:42:02;;;;;;;7.67;6.43;;;;;;;;;;5045630;28;20912;-45
2023/06/07 03:44:28;;;;;;;9.47;6.60;;;;;;;;;;5050035;28;20456;-44
2023/06/07 03:46:54;;;;;;;10.10;6.53;;;;;;;;;;5050242;28;20429;-44
2023/06/07 03:49:20;;;;;;;9.70;6.60;;;;;;;;;;5051190;28;20409;-44
2023/06/07 03:51:49;;;;;;;7.93;6.70;;;;;;;;;;5051188;28;20444;-44
2023/06/07 03:54:15;;;;;;;11.40;6.87;;;;;;;;;;5042890;28;20453;-45
2023/06/07 03:56:41;;;;;;;11.30;7.07;;;;;;;;;;5050814;28;20551;-44
2023/06/07 03:59:07;;;;;;;15.67;7.40;;;;;;;;;;5051890;28;20481;-45
2023/06/07 04:01:35;;;;;;;9.10;7.03;;;;;;;;;;5046438;28;20379;-45
2023/06/07 04:04:01;;;;;;;9.40;6.77;;;;;;;;;;5054812;28;20421;-44
2023/06/07 04:06:28;;;;;;;13.00;6.87;;;;;;;;;;5054842;28;20425;-44
2023/06/07 04:08:56;;;;;;;11.63;7.10;;;;;;;;;;5046642;28;20394;-45
2023/06/07 04:11:22;;;;;;;11.10;6.23;;;;;;;;;;5055921;28;20416;-44
2023/06/07 04:13:48;;;;;;;13.87;8.23;;;;;;;;;;5052518;28;20529;-44
2023/06/07 04:16:14;;;;;;;9.83;6.80;;;;;;;;;;5050567;28;20463;-45
2023/06/07 04:18:40;;;;;;;17.80;8.33;;;;;;;;;;5051414;28;20408;-44
2023/06/07 04:21:06;;;;;;;9.70;7.37;;;;;;;;;;5049555;28;20382;-44
2023/06/07 04:23:32;;;;;;;10.03;7.67;;;;;;;;;;5046030;28;20803;-44
2023/06/07 04:25:59;;;;;;;9.03;7.07;;;;;;;;;;5054455;28;20495;-44
2023/06/07 04:28:27;;;;;;;14.90;8.80;;;;;;;;;;5046155;28;20402;-44
2023/06/07 04:30:53;;;;;;;12.23;7.53;;;;;;;;;;5049420;28;20392;-44
2023/06/07 04:33:21;;;;;;;12.30;7.67;;;;;;;;;;5042612;28;20440;-44
2023/06/07 04:35:47;;;;;;;15.63;7.80;;;;;;;;;;5054333;28;20506;-44
2023/06/07 04:38:20;;;;;;;12.70;8.03;;;;;;;;;;5054249;28;20471;-44
2023/06/07 04:40:48;;;;;;;10.20;7.03;;;;;;;;;;5046473;28;20404;-44
2023/06/07 04:43:18;;;;;;;11.97;7.00;;;;;;;;;;5053036;28;20443;-45
2023/06/07 04:45:46;;;;;;;9.47;7.33;;;;;;;;;;5052778;28;20849;-44
2023/06/07 04:48:12;;;;;;;7.47;6.77;;;;;;;;;;5054185;28;20973;-44
2023/06/07 04:50:41;;;;;;;13.70;7.37;;;;;;;;;;5045829;28;20428;-44
2023/06/07 04:53:08;;;;;;;11.47;8.03;;;;;;;;;;5054471;28;20427;-44
2023/06/07 04:55:34;;;;;;;10.50;7.60;;;;;;;;;;5051611;28;20399;-43
2023/06/07 04:58:04;;;;;;;13.93;8.30;;;;;;;;;;5047986;28;20432;-44
2023/06/07 05:00:30;;;;;;;10.30;6.83;;;;;;;;;;5053792;28;20412;-44
2023/06/07 05:02:56;;;;;;;8.77;6.67;;;;;;;;;;5053615;28;20456;-44
2023/06/07 05:05:22;;;;;;;9.33;7.30;;;;;;;;;;5045514;28;20883;-44
2023/06/07 05:07:49;;;;;;;16.80;9.10;;;;;;;;;;5045508;28;20521;-45
2023/06/07 05:10:16;;;;;;;9.27;8.20;;;;;;;;;;5052882;28;20410;-44
2023/06/07 05:12:42;;;;;;;12.20;7.33;;;;;;;;;;5053461;28;20414;-44
2023/06/07 05:15:08;;;;;;;9.97;7.83;;;;;;;;;;5053777;28;20804;-44
2023/06/07 05:17:34;;;;;;;10.73;7.60;;;;;;;;;;5053392;28;20486;-44
2023/06/07 05:20:00;;;;;;;11.57;7.67;;;;;;;;;;5053546;28;20404;-44
2023/06/07 05:22:27;;;;;;;8.67;7.77;;;;;;;;;;5045938;28;20436;-44
2023/06/07 05:24:53;;;;;;;10.23;8.60;;;;;;;;;;5053051;28;20472;-44
2023/06/07 05:27:19;;;;;;;13.63;7.60;;;;;;;;;;5045038;28;20738;-44
2023/06/07 05:29:45;;;;;;;9.93;7.37;;;;;;;;;;5045052;28;20892;-44
2023/06/07 05:32:11;;;;;;;10.73;7.03;;;;;;;;;;5053282;28;20892;-44
2023/06/07 05:34:38;;;;;;;8.87;7.90;;;;;;;;;;5050254;28;20425;-44
2023/06/07 05:37:04;;;;;;;10.60;7.97;;;;;;;;;;5047841;28;20590;-44
2023/06/07 05:39:30;;;;;;;10.83;7.97;;;;;;;;;;5052947;28;20819;-44
2023/06/07 05:41:56;;;;;;;12.60;8.17;;;;;;;;;;5051585;28;20427;-44
2023/06/07 05:44:22;;;;;;;10.93;7.83;;;;;;;;;;5044412;28;20972;-44
2023/06/07 05:46:48;;;;;;;13.10;8.43;;;;;;;;;;5044730;28;20414;-44
2023/06/07 05:49:15;;;;;;;10.93;8.20;;;;;;;;;;5045196;28;20395;-44
2023/06/07 05:51:51;;;;;;;10.40;7.90;;;;;;;;;;5052617;28;20412;-44
2023/06/07 05:54:18;;;;;;;12.27;8.10;;;;;;;;;;5052538;28;20438;-44
2023/06/07 05:56:45;;;;;;;12.17;8.70;;;;;;;;;;5052684;28;20446;-44
2023/06/07 05:59:11;;;;;;;12.00;7.90;;;;;;;;;;5044462;28;20404;-44
2023/06/07 06:01:37;;;;;;;14.23;8.80;;;;;;;;;;5044191;28;20401;-44
2023/06/07 06:04:03;;;;;;;17.07;10.07;;;;;;;;;;5044214;28;20920;-44
2023/06/07 06:06:29;;;;;;;13.40;7.90;;;;;;;;;;5049883;28;20416;-44
2023/06/07 06:08:55;;;;;;;11.00;8.33;;;;;;;;;;5052057;28;20893;-44
2023/06/07 06:11:22;;;;;;;13.60;9.30;;;;;;;;;;5050851;28;20425;-44
2023/06/07 06:13:48;;;;;;;10.23;8.40;;;;;;;;;;5051036;28;20403;-44
2023/06/07 06:16:14;;;;;;;10.40;8.50;;;;;;;;;;5043981;28;20846;-44
2023/06/07 06:18:43;;;;;;;12.10;9.40;;;;;;;;;;5043565;28;20513;-44
2023/06/07 06:21:09;;;;;;;10.30;8.20;;;;;;;;;;5042227;28;20491;-44
2023/06/07 06:23:36;;;;;;;13.63;9.00;;;;;;;;;;5050713;28;20495;-44
2023/06/07 06:26:02;;;;;;;11.50;8.10;;;;;;;;;;5051508;28;20905;-44
2023/06/07 06:28:28;;;;;;;13.77;8.90;;;;;;;;;;5051713;28;20412;-44
2023/06/07 06:30:54;;;;;;;13.03;8.30;;;;;;;;;;5047210;28;20756;-44
2023/06/07 06:33:20;;;;;;;14.37;7.73;;;;;;;;;;5048382;28;20784;-44
2023/06/07 06:35:47;;;;;;;10.37;8.27;;;;;;;;;;5051862;28;20409;-44
2023/06/07 06:38:13;;;;;;;14.30;9.07;;;;;;;;;;5043818;28;20533;-44
2023/06/07 06:40:39;;;;;;;13.60;7.87;;;;;;;;;;5048228;28;20397;-44
2023/06/07 06:43:05;;;;;;;11.50;8.80;;;;;;;;;;5047186;28;20433;-44
2023/06/07 06:45:31;;;;;;;12.93;8.87;;;;;;;;;;5043652;28;20414;-44
2023/06/07 06:48:00;;;;;;;21.70;9.33;;;;;;;;;;5051817;28;20482;-44
2023/06/07 06:50:28;;;;;;;14.80;9.27;;;;;;;;;;5051839;28;20421;-44
2023/06/07 06:52:54;;;;;;;9.80;8.50;;;;;;;;;;5051430;28;20463;-44
2023/06/07 06:55:20;;;;;;;13.10;9.17;;;;;;;;;;5043139;28;20409;-44
2023/06/07 06:57:46;;;;;;;15.23;9.40;;;;;;;;;;5044003;28;20983;-44
2023/06/07 07:00:12;;;;;;;14.53;9.77;;;;;;;;;;5051732;28;20721;-44
2023/06/07 07:02:38;;;;;;;15.80;9.20;;;;;;;;;;5043084;28;20830;-44
2023/06/07 07:05:09;;;;;;;11.57;8.83;;;;;;;;;;5051681;28;20388;-44
2023/06/07 07:07:35;;;;;;;18.60;9.23;;;;;;;;;;5049208;28;20411;-44
2023/06/07 07:10:01;;;;;;;13.47;9.80;;;;;;;;;;5042949;28;20472;-44
2023/06/07 07:12:27;;;;;;;12.37;10.00;;;;;;;;;;5051426;28;20431;-44
2023/06/07 07:14:53;;;;;;;12.90;9.30;;;;;;;;;;5051365;28;20902;-44
2023/06/07 07:17:20;;;;;;;17.07;10.57;;;;;;;;;;5043041;28;20455;-44
2023/06/07 07:19:46;;;;;;;14.53;10.20;;;;;;;;;;5051573;28;20408;-44
2023/06/07 07:22:11;;;;;;;13.23;10.13;;;;;;;;;;5044062;28;20931;-44
2023/06/07 07:24:37;;;;;;;14.93;9.33;;;;;;;;;;5050751;28;20954;-44
2023/06/07 07:27:05;;;;;;;11.23;9.50;;;;;;;;;;5045012;28;20482;-44
2023/06/07 07:29:31;;;;;;;18.47;9.77;;;;;;;;;;5049813;28;20412;-44
2023/06/07 07:31:57;;;;;;;12.83;10.37;;;;;;;;;;5051337;28;20431;-44
2023/06/07 07:34:23;;;;;;;14.97;10.13;;;;;;;;;;5045093;28;20397;-44
2023/06/07 07:36:50;;;;;;;11.07;8.93;;;;;;;;;;5054870;28;20442;-44
2023/06/07 07:39:16;;;;;;;15.70;9.77;;;;;;;;;;5055317;28;20451;-44
2023/06/07 07:41:42;;;;;;;16.43;10.53;;;;;;;;;;5054224;28;20475;-44
2023/06/07 07:44:08;;;;;;;18.13;11.27;;;;;;;;;;5055062;28;20938;-44
2023/06/07 07:46:35;;;;;;;13.33;10.37;;;;;;;;;;5054961;28;20394;-44
2023/06/07 07:49:01;;;;;;;15.33;11.50;;;;;;;;;;5055209;28;20394;-44
2023/06/07 07:51:27;;;;;;;17.70;10.80;;;;;;;;;;5045535;28;20416;-44
2023/06/07 07:53:53;;;;;;;17.93;10.93;;;;;;;;;;5048010;28;20450;-44
2023/06/07 07:56:21;;;;;;;19.20;11.60;;;;;;;;;;5046645;28;20428;-44
2023/06/07 07:58:48;;;;;;;17.77;10.70;;;;;;;;;;5055104;28;20404;-44
2023/06/07 08:01:16;;;;;;;16.53;10.80;;;;;;;;;;5047194;28;20450;-44
2023/06/07 08:03:42;;;;;;;18.33;12.10;;;;;;;;;;5054528;28;20922;-44
2023/06/07 08:06:08;;;;;;;14.17;10.87;;;;;;;;;;5054827;28;20396;-44
2023/06/07 08:08:34;;;;;;;14.07;10.43;;;;;;;;;;5052559;28;20469;-44
2023/06/07 08:11:00;;;;;;;19.00;10.80;;;;;;;;;;5047180;28;20474;-44
2023/06/07 08:13:26;;;;;;;19.87;12.17;;;;;;;;;;5044085;28;20454;-44
2023/06/07 08:15:52;;;;;;;12.83;11.43;;;;;;;;;;5046961;28;20396;-44
2023/06/07 08:18:18;;;;;;;17.90;11.77;;;;;;;;;;5054564;28;20467;-43
2023/06/07 08:20:44;;;;;;;13.17;10.10;;;;;;;;;;5054790;28;20395;-44
2023/06/07 08:23:11;;;;;;;19.23;11.63;;;;;;;;;;5047056;28;20491;-44
2023/06/07 08:25:37;;;;;;;18.90;11.33;;;;;;;;;;5053665;28;20421;-44
2023/06/07 08:28:03;;;;;;;20.47;12.17;;;;;;;;;;5054332;28;20418;-43
2023/06/07 08:30:29;;;;;;;15.50;11.73;;;;;;;;;;5046098;28;20382;-44
2023/06/07 08:32:55;;;;;;;20.13;12.33;;;;;;;;;;5045980;28;20398;-44
2023/06/07 08:35:21;;;;;;;14.53;10.37;;;;;;;;;;5046184;28;20522;-44
2023/06/07 08:37:47;;;;;;;15.47;12.57;;;;;;;;;;5054222;28;20817;-43
2023/06/07 08:40:14;;;;;;;20.40;12.37;;;;;;;;;;5053172;28;20476;-44
2023/06/07 08:42:41;;;;;;;15.30;11.40;;;;;;;;;;5050802;28;20492;-43
2023/06/07 08:45:07;;;;;;;16.67;11.73;;;;;;;;;;5051028;28;20443;-44
2023/06/07 08:47:33;;;;;;;18.63;12.60;;;;;;;;;;5054104;28;20391;-43
2023/06/07 08:50:00;;;;;;;16.03;11.20;;;;;;;;;;5054126;28;20920;-43
2023/06/07 08:52:26;;;;;;;23.33;15.77;;;;;;;;;;5045624;28;20422;-44
2023/06/07 08:54:58;;;;;;;21.03;15.47;;;;;;;;;;5053766;28;20846;-44
2023/06/07 08:57:25;;;;;;;21.77;15.83;;;;;;;;;;5045451;28;20523;-44
2023/06/07 08:59:51;;;;;;;18.90;14.87;;;;;;;;;;5053886;28;20393;-44
2023/06/07 09:02:19;;;;;;;23.73;16.00;;;;;;;;;;5053833;28;20518;-44
2023/06/07 09:04:45;;;;;;;22.93;16.80;;;;;;;;;;5041910;28;20388;-44
2023/06/07 09:07:11;;;;;;;22.30;14.80;;;;;;;;;;5049433;28;20420;-44
2023/06/07 09:09:39;;;;;;;21.97;16.27;;;;;;;;;;5052687;28;20470;-43
2023/06/07 09:12:06;;;;;;;26.87;15.53;;;;;;;;;;5052728;28;20515;-44
2023/06/07 09:14:33;;;;;;;24.20;17.30;;;;;;;;;;5053457;28;20467;-43
2023/06/07 09:16:59;;;;;;;27.27;17.33;;;;;;;;;;5054196;28;20968;-44
2023/06/07 09:19:34;;;;;;;25.30;15.63;;;;;;;;;;5045326;28;20414;-43
2023/06/07 09:22:02;;;;;;;25.80;18.13;;;;;;;;;;5053582;28;20416;-43
2023/06/07 09:24:28;;;;;;;24.17;17.87;;;;;;;;;;5049833;28;20440;-44
2023/06/07 09:26:55;;;;;;;36.27;21.53;;;;;;;;;;5044836;28;20428;-44
2023/06/07 09:29:22;;;;;;;35.10;23.20;;;;;;;;;;5051668;28;20433;-43
2023/06/07 09:31:48;;;;;;;26.40;20.27;;;;;;;;;;5051952;28;20401;-43
2023/06/07 09:34:21;;;;;;;25.40;18.70;;;;;;;;;;5051609;28;20779;-43
2023/06/07 09:36:51;;;;;;;32.10;20.80;;;;;;;;;;5047715;28;20886;-44
2023/06/07 09:39:23;;;;;;;28.80;20.97;;;;;;;;;;5044489;28;20953;-43
2023/06/07 09:41:54;;;;;;;34.73;22.97;;;;;;;;;;5048771;28;20397;-44
2023/06/07 09:44:23;;;;;;;35.37;25.10;;;;;;;;;;5041362;28;20442;-44
2023/06/07 09:46:51;;;;;;;35.10;24.90;;;;;;;;;;5053051;28;20417;-44
2023/06/07 09:49:28;;;;;;;29.93;23.43;;;;;;;;;;5052986;28;20411;-44
2023/06/07 09:51:55;;;;;;;36.30;22.87;;;;;;;;;;5044767;28;20472;-44
2023/06/07 09:54:37;;;;;;;31.93;21.80;;;;;;;;;;5044165;28;20441;-44
2023/06/07 09:57:23;;;;;;;35.83;22.23;;;;;;;;;;5046410;28;20446;-44
2023/06/07 09:59:58;;;;;;;32.23;21.23;;;;;;;;;;5047610;28;20418;-44
2023/06/07 10:02:28;;;;;;;28.30;21.77;;;;;;;;;;5050813;28;20417;-43
2023/06/07 10:04:56;;;;;;;26.17;20.80;;;;;;;;;;5052109;28;20900;-44
2023/06/07 10:07:23;;;;;;;32.47;21.93;;;;;;;;;;5047627;28;20965;-44
2023/06/07 10:09:58;;;;;;;30.93;22.17;;;;;;;;;;5052414;28;20430;-44
2023/06/07 10:12:28;;;;;;;31.70;23.00;;;;;;;;;;5052200;28;20418;-44
2023/06/07 10:14:55;;;;;;;30.23;23.57;;;;;;;;;;5046659;28;20852;-44
2023/06/07 10:17:23;;;;;;;26.37;21.80;;;;;;;;;;5050624;28;20467;-45
2023/06/07 10:19:51;;;;;;;22.33;18.80;;;;;;;;;;5050491;28;20421;-44
2023/06/07 10:22:20;;;;;;;28.67;20.03;;;;;;;;;;5051767;28;20422;-44
2023/06/07 10:25:05;;;;;;;33.17;20.43;;;;;;;;;;5050186;28;20417;-44
2023/06/07 10:27:35;;;;;;;20.20;18.00;;;;;;;;;;5051509;28;20798;-44
2023/06/07 10:30:11;;;;;;;24.93;18.07;;;;;;;;;;5052470;28;20413;-44
2023/06/07 10:32:39;;;;;;;20.43;16.97;;;;;;;;;;5051972;28;20439;-44
2023/06/07 10:35:07;;;;;;;28.33;19.20;;;;;;;;;;5052181;28;20421;-44
2023/06/07 10:40:14;;;;;;;22.90;18.80;;;;;;;;;;5682701;23;20490;-44
2023/06/07 10:42:43;;;;;;;22.17;17.90;;;;;;;;;;5015039;28;20458;-44
2023/06/07 10:45:14;;;;;;;24.07;18.10;;;;;;;;;;5012146;28;20423;-44
2023/06/07 10:47:41;;;;;;;22.80;17.20;;;;;;;;;;5027340;28;20783;-44
2023/06/07 10:50:07;;;;;;;20.93;16.47;;;;;;;;;;5020474;28;20484;-44
2023/06/07 10:52:33;;;;;;;21.87;17.83;;;;;;;;;;5032773;28;20402;-44
2023/06/07 10:57:32;;;;;;;21.70;18.40;;;;;;;;;;4987329;28;20483;-47
2023/06/07 11:00:17;;;;;;;23.47;17.30;;;;;;;;;;4991892;28;20934;-47
2023/06/07 11:02:43;;;;;;;22.03;17.77;;;;;;;;;;4990499;28;20495;-47
2023/06/07 11:05:10;;;;;;;22.17;17.87;;;;;;;;;;4992337;28;20495;-47
2023/06/07 11:07:41;;;;;;;23.83;17.40;;;;;;;;;;4991259;28;20424;-47
2023/06/07 11:10:07;;;;;;;24.37;17.80;;;;;;;;;;4984393;28;20404;-46
2023/06/07 11:12:40;;;;;;;26.23;18.57;;;;;;;;;;4992341;28;20411;-47
2023/06/07 11:15:27;;;;;;;29.57;18.07;;;;;;;;;;4991031;28;20400;-47
2023/06/07 11:17:54;;;;;;;22.77;17.53;;;;;;;;;;4991976;28;20467;-48
2023/06/07 11:20:38;;;;;;;20.20;15.60;;;;;;;;;;4991794;28;20439;-48
2023/06/07 11:23:22;;;;;;;19.17;16.83;;;;;;;;;;4985593;28;20424;-49
2023/06/07 11:25:49;;;;;;;21.43;15.90;;;;;;;;;;4991135;28;20439;-47
2023/06/07 11:28:16;;;;;;;21.27;14.53;;;;;;;;;;4992089;28;20415;-48
2023/06/07 11:30:42;;;;;;;18.57;15.97;;;;;;;;;;4991705;28;20478;-48
2023/06/07 11:33:09;;;;;;;22.40;16.57;;;;;;;;;;4992119;28;20923;-48
2023/06/07 11:35:35;;;;;;;19.23;14.40;;;;;;;;;;4992035;28;20479;-48
2023/06/07 11:38:05;;;;;;;19.60;15.73;;;;;;;;;;4991786;28;20451;-48
2023/06/07 11:40:31;;;;;;;20.53;16.03;;;;;;;;;;4991930;28;20416;-47
2023/06/07 11:42:57;;;;;;;19.73;14.20;;;;;;;;;;4990976;28;20434;-48
2023/06/07 11:45:23;;;;;;;15.27;13.70;;;;;;;;;;4991840;28;20435;-47
2023/06/07 11:47:49;;;;;;;17.47;14.40;;;;;;;;;;4991845;28;20511;-47
2023/06/07 11:50:15;;;;;;;21.30;14.37;;;;;;;;;;4991657;28;20420;-48
2023/06/07 11:52:41;;;;;;;21.10;15.23;;;;;;;;;;4992084;28;20787;-48
2023/06/07 11:55:10;;;;;;;15.17;13.30;;;;;;;;;;4991729;28;20404;-48
2023/06/07 11:57:38;;;;;;;16.50;14.47;;;;;;;;;;4991854;28;20505;-48
2023/06/07 12:00:11;;;;;;;18.37;14.70;;;;;;;;;;4991454;28;20927;-48
2023/06/07 12:02:39;;;;;;;21.80;16.60;;;;;;;;;;4992054;28;20408;-49
2023/06/07 12:05:06;;;;;;;19.90;17.70;;;;;;;;;;4984369;28;20514;-48
2023/06/07 12:07:32;;;;;;;27.33;19.60;;;;;;;;;;4991748;28;20434;-48
2023/06/07 12:09:58;;;;;;;27.40;20.73;;;;;;;;;;4991430;28;20415;-49
2023/06/07 12:12:24;;;;;;;23.07;20.17;;;;;;;;;;4991654;28;20416;-48
2023/06/07 12:14:59;;;;;;;25.00;19.30;;;;;;;;;;4991745;28;20470;-48
2023/06/07 12:17:25;;;;;;;22.70;19.83;;;;;;;;;;4991525;28;20455;-48
2023/06/07 12:19:51;;;;;;;27.37;23.10;;;;;;;;;;4991681;28;20408;-49
2023/06/07 12:22:17;;;;;;;24.93;22.30;;;;;;;;;;4995259;28;20417;-50
2023/06/07 12:24:43;;;;;;;26.93;21.90;;;;;;;;;;4995239;28;20422;-48
2023/06/07 12:27:12;;;;;;;33.73;25.67;;;;;;;;;;4994942;28;20442;-48
2023/06/07 12:29:38;;;;;;;26.43;23.63;;;;;;;;;;4995142;28;20420;-48
2023/06/07 12:32:05;;;;;;;25.77;22.80;;;;;;;;;;4992797;28;20443;-47
2023/06/07 12:34:32;;;;;;;31.47;24.90;;;;;;;;;;4995288;28;20416;-47
2023/06/07 12:36:58;;;;;;;27.77;24.77;;;;;;;;;;4994855;28;20458;-48
2023/06/07 12:39:27;;;;;;;33.13;25.30;;;;;;;;;;4994831;28;20829;-48
2023/06/07 12:41:53;;;;;;;28.10;25.00;;;;;;;;;;4994918;28;20463;-49
2023/06/07 12:44:19;;;;;;;33.00;26.57;;;;;;;;;;4994982;28;21032;-48
2023/06/07 12:46:45;;;;;;;30.27;25.50;;;;;;;;;;4993699;28;20482;-48
2023/06/07 12:49:11;;;;;;;30.40;24.43;;;;;;;;;;4994570;28;20456;-48
2023/06/07 12:51:37;;;;;;;27.63;24.43;;;;;;;;;;4999591;28;20417;-48
2023/06/07 12:54:04;;;;;;;32.07;25.67;;;;;;;;;;4994454;28;21001;-48
2023/06/07 12:56:30;;;;;;;37.90;28.50;;;;;;;;;;4994460;28;21144;-48
2023/06/07 12:58:56;;;;;;;31.17;27.57;;;;;;;;;;4994512;28;20416;-47
2023/06/07 13:01:22;;;;;;;32.03;28.13;;;;;;;;;;4993516;28;20433;-48
2023/06/07 13:03:49;;;;;;;29.07;25.10;;;;;;;;;;4995477;28;20510;-48
2023/06/07 13:06:15;;;;;;;27.73;24.70;;;;;;;;;;4994327;28;20438;-48
2023/06/07 13:08:43;;;;;;;30.53;24.13;;;;;;;;;;4994252;28;20417;-49
2023/06/07 13:11:09;;;;;;;30.93;24.10;;;;;;;;;;4994445;28;20782;-47
2023/06/07 13:13:35;;;;;;;29.00;24.80;;;;;;;;;;4994427;28;20436;-47
2023/06/07 13:16:01;;;;;;;27.07;23.27;;;;;;;;;;4994099;28;20535;-47
2023/06/07 13:18:28;;;;;;;34.37;24.23;;;;;;;;;;4994355;28;20467;-48
2023/06/07 13:20:55;;;;;;;26.30;21.57;;;;;;;;;;4993866;28;20434;-49
2023/06/07 13:23:21;;;;;;;26.43;23.07;;;;;;;;;;4994086;28;20416;-49
2023/06/07 13:25:47;;;;;;;22.70;20.30;;;;;;;;;;4994163;28;20438;-48
2023/06/07 13:28:13;;;;;;;22.63;20.17;;;;;;;;;;4994268;28;20515;-49
2023/06/07 13:30:39;;;;;;;25.13;21.83;;;;;;;;;;4993792;28;20431;-50
2023/06/07 13:33:15;;;;;;;25.77;21.93;;;;;;;;;;4993060;28;20436;-48
2023/06/07 13:35:41;;;;;;;22.97;20.30;;;;;;;;;;4993184;28;21111;-48
2023/06/07 13:38:07;;;;;;;21.53;19.40;;;;;;;;;;4993848;28;20477;-47
2023/06/07 13:40:33;;;;;;;21.43;19.20;;;;;;;;;;4993767;28;20419;-48
2023/06/07 13:42:59;;;;;;;18.67;16.20;;;;;;;;;;4993685;28;20416;-49
2023/06/07 13:45:25;;;;;;;20.33;18.27;;;;;;;;;;4993618;28;20838;-49
2023/06/07 13:47:52;;;;;;;20.40;17.93;;;;;;;;;;4993621;28;20416;-49
2023/06/07 13:50:18;;;;;;;20.50;18.40;;;;;;;;;;4995064;28;20775;-49
2023/06/07 13:52:44;;;;;;;19.80;17.73;;;;;;;;;;4996352;28;20518;-49
2023/06/07 13:55:10;;;;;;;21.63;18.13;;;;;;;;;;4993534;28;20870;-49
2023/06/07 13:57:36;;;;;;;18.17;16.40;;;;;;;;;;4993429;28;20469;-50
2023/06/07 14:00:03;;;;;;;19.80;17.90;;;;;;;;;;4993377;28;20408;-49
2023/06/07 14:02:29;;;;;;;20.03;16.87;;;;;;;;;;4992775;28;20857;-49
2023/06/07 14:04:56;;;;;;;19.93;18.00;;;;;;;;;;4975046;28;20450;-49
2023/06/07 14:07:22;;;;;;;18.30;16.30;;;;;;;;;;4993400;28;20459;-49
2023/06/07 14:09:48;;;;;;;18.93;16.93;;;;;;;;;;4993288;28;20467;-49
2023/06/07 14:12:14;;;;;;;17.50;15.80;;;;;;;;;;4993344;28;20416;-49
2023/06/07 14:14:40;;;;;;;18.13;16.37;;;;;;;;;;4993281;28;20412;-49
2023/06/07 14:17:06;;;;;;;18.13;16.27;;;;;;;;;;4993033;28;20456;-49
2023/06/07 14:19:32;;;;;;;18.20;16.17;;;;;;;;;;4992928;28;20414;-49
2023/06/07 14:21:58;;;;;;;17.10;15.50;;;;;;;;;;4993103;28;20412;-49
2023/06/07 14:24:24;;;;;;;19.20;15.30;;;;;;;;;;4993071;28;20416;-49
2023/06/07 14:26:49;;;;;;;19.60;14.30;;;;;;;;;;4993006;28;20448;-49
2023/06/07 14:29:16;;;;;;;16.30;12.53;;;;;;;;;;4993198;28;20539;-49
2023/06/07 14:31:42;;;;;;;16.77;11.80;;;;;;;;;;4993001;28;21163;-49